Time;durP1;ratioP1;P1;durP2;ratioP2;P2;SDS_P1;SDS_P2;PMS_P1;PMS_P2;Temp;Humidity;BMP_temperature;BMP_pressure;BME280_temperature;BME280_humidity;BME280_pressure;Samples;Min_cycle;Max_cycle;Signal;HPM_P1;HPM_P2
2022/12/10 00:00:34;;;;;;;5.82;2.78;;;9.60;67.70;;;;;;6247350;28;20038;-79
2022/12/10 00:03:36;;;;;;;4.85;2.80;;;9.50;67.70;;;;;;6249466;28;20118;-80
2022/12/10 00:06:38;;;;;;;7.22;3.22;;;9.50;67.60;;;;;;6246957;28;20485;-79
2022/12/10 00:09:39;;;;;;;7.43;3.33;;;9.50;67.60;;;;;;6253676;28;20470;-78
2022/12/10 00:12:39;;;;;;;7.50;3.33;;;9.50;67.60;;;;;;6232168;28;20095;-78
2022/12/10 00:15:40;;;;;;;7.10;3.45;;;9.50;67.70;;;;;;6247823;28;20038;-78
2022/12/10 00:18:41;;;;;;;7.07;3.65;;;9.40;67.60;;;;;;6252998;28;20055;-79
2022/12/10 00:21:44;;;;;;;7.70;3.28;;;9.40;67.60;;;;;;6261740;28;20056;-78
2022/12/10 00:24:46;;;;;;;4.97;2.90;;;9.40;67.70;;;;;;6244628;28;20037;-80
2022/12/10 00:27:47;;;;;;;8.82;4.20;;;9.40;67.70;;;;;;6244872;28;20108;-80
2022/12/10 00:30:47;;;;;;;7.00;3.42;;;9.30;67.70;;;;;;6246559;28;20396;-79
2022/12/10 00:33:49;;;;;;;4.45;2.53;;;9.30;67.70;;;;;;6238937;28;20443;-79
2022/12/10 00:36:50;;;;;;;6.65;2.72;;;9.30;67.70;;;;;;6248599;28;20029;-79
2022/12/10 00:39:51;;;;;;;5.63;2.95;;;9.30;67.70;;;;;;6264803;28;20057;-79
2022/12/10 00:42:52;;;;;;;7.28;2.95;;;9.30;67.50;;;;;;6248628;28;20037;-78
2022/12/10 00:45:53;;;;;;;6.97;4.00;;;9.20;67.30;;;;;;6244558;28;20075;-79
2022/12/10 00:48:54;;;;;;;9.57;4.03;;;9.20;67.20;;;;;;6247096;28;20033;-79
2022/12/10 00:51:55;;;;;;;8.95;3.72;;;9.10;67.00;;;;;;6243436;28;20040;-79
2022/12/10 00:54:56;;;;;;;7.18;3.22;;;9.10;66.90;;;;;;6246017;28;20204;-79
2022/12/10 00:57:57;;;;;;;10.57;3.42;;;9.00;66.90;;;;;;6244343;28;20037;-79
2022/12/10 01:01:34;;;;;;;7.38;3.58;;;9.00;67.00;;;;;;6227425;28;20085;-79
2022/12/10 01:04:35;;;;;;;9.45;3.72;;;9.00;67.10;;;;;;6189559;28;20049;-79
2022/12/10 01:07:36;;;;;;;8.38;3.45;;;9.00;67.10;;;;;;6165599;28;20512;-79
2022/12/10 01:10:37;;;;;;;10.15;4.50;;;9.00;67.00;;;;;;6178568;28;20117;-78
2022/12/10 01:13:39;;;;;;;10.13;3.85;;;9.00;66.80;;;;;;6176713;28;20062;-78
2022/12/10 01:16:40;;;;;;;8.25;3.97;;;8.90;66.80;;;;;;6177048;28;20109;-78
2022/12/10 01:19:41;;;;;;;8.70;3.88;;;8.90;66.80;;;;;;6192524;28;20049;-78
2022/12/10 01:22:41;;;;;;;6.55;3.13;;;8.90;67.60;;;;;;6176585;28;20451;-80
2022/12/10 01:25:42;;;;;;;9.43;3.83;;;8.90;66.90;;;;;;6190871;28;20092;-77
2022/12/10 01:28:43;;;;;;;7.50;3.75;;;8.90;66.80;;;;;;6191716;28;20042;-78
2022/12/10 01:31:47;;;;;;;8.23;3.88;;;8.90;66.90;;;;;;6192080;28;20761;-78
2022/12/10 01:34:48;;;;;;;8.35;3.42;;;8.80;66.80;;;;;;6175097;28;20042;-78
2022/12/10 01:37:49;;;;;;;8.85;3.63;;;8.90;66.90;;;;;;6192360;28;20038;-79
2022/12/10 01:40:50;;;;;;;11.07;3.78;;;8.90;66.90;;;;;;6191862;28;20479;-79
2022/12/10 01:43:54;;;;;;;8.82;3.67;;;8.90;66.90;;;;;;6218055;28;20045;-79
2022/12/10 01:46:59;;;;;;;10.30;3.75;;;8.80;66.70;;;;;;6215163;28;20034;-79
2022/12/10 01:50:01;;;;;;;7.75;3.75;;;8.80;66.70;;;;;;6212598;28;20059;-77
2022/12/10 01:53:03;;;;;;;8.27;4.05;;;8.80;66.70;;;;;;6248446;28;20532;-78
2022/12/10 01:56:04;;;;;;;7.15;3.38;;;8.80;66.80;;;;;;6241252;28;20033;-79
2022/12/10 01:59:05;;;;;;;13.57;4.00;;;8.70;66.80;;;;;;6257623;28;20041;-78
2022/12/10 02:02:20;;;;;;;5.50;3.35;;;8.70;66.90;;;;;;6234532;28;20620;-78
2022/12/10 02:05:52;;;;;;;7.80;3.30;;;8.70;67.10;;;;;;6231303;28;20045;-79
2022/12/10 02:09:36;;;;;;;7.72;3.47;;;8.60;67.30;;;;;;6257667;28;20304;-78
2022/12/10 02:13:10;;;;;;;8.88;3.55;;;8.60;67.40;;;;;;6215008;28;20034;-78
2022/12/10 02:16:25;;;;;;;10.02;4.20;;;8.60;67.40;;;;;;6140913;29;20054;-79
2022/12/10 02:19:53;;;;;;;6.50;3.50;;;8.60;67.50;;;;;;6144105;29;20058;-78
2022/12/10 02:23:12;;;;;;;6.80;3.80;;;8.50;67.50;;;;;;6142850;28;20031;-78
2022/12/10 02:26:54;;;;;;;7.30;3.80;;;8.50;67.70;;;;;;6143414;29;20125;-78
2022/12/10 02:29:57;;;;;;;7.88;3.13;;;8.40;67.90;;;;;;6080060;29;20032;-79
2022/12/10 02:33:02;;;;;;;5.78;3.50;;;8.40;67.90;;;;;;6096844;29;20044;-78
2022/12/10 02:36:05;;;;;;;10.90;4.22;;;8.40;68.00;;;;;;6095971;29;20457;-79
2022/12/10 02:39:11;;;;;;;6.50;3.72;;;8.40;68.10;;;;;;6097161;29;20058;-79
2022/12/10 02:42:21;;;;;;;7.20;4.00;;;8.40;68.00;;;;;;6094110;29;20107;-79
2022/12/10 02:45:25;;;;;;;9.10;4.43;;;8.40;67.90;;;;;;6084665;29;20422;-78
2022/12/10 02:48:28;;;;;;;7.13;3.88;;;8.40;67.80;;;;;;6061451;29;20036;-78
2022/12/10 02:51:29;;;;;;;7.07;3.38;;;8.40;67.70;;;;;;6079253;28;20049;-79
2022/12/10 02:54:34;;;;;;;8.75;3.83;;;8.40;67.60;;;;;;6140762;28;20066;-79
2022/12/10 02:57:46;;;;;;;7.78;3.80;;;8.40;67.40;;;;;;6139016;28;20376;-78
2022/12/10 03:01:01;;;;;;;4.18;2.67;;;8.40;67.50;;;;;;6117847;28;20035;-79
2022/12/10 03:04:16;;;;;;;8.18;2.88;;;8.40;67.60;;;;;;6139758;28;20039;-79
2022/12/10 03:07:32;;;;;;;10.88;3.25;;;8.50;67.60;;;;;;6192722;28;20490;-79
2022/12/10 03:10:40;;;;;;;8.77;4.05;;;8.50;67.60;;;;;;6238208;28;20049;-79
2022/12/10 03:14:38;;;;;;;6.20;3.45;;;8.40;67.70;;;;;;6223930;28;20041;-78
2022/12/10 03:17:42;;;;;;;8.43;3.47;;;8.40;68.00;;;;;;6107596;28;20122;-79
2022/12/10 03:20:45;;;;;;;6.13;3.28;;;8.30;67.90;;;;;;6105914;28;20040;-79
2022/12/10 03:23:49;;;;;;;7.35;2.67;;;8.30;68.20;;;;;;6107447;28;20035;-79
2022/12/10 03:26:52;;;;;;;7.53;2.83;;;8.20;68.20;;;;;;6106777;28;20051;-79
2022/12/10 03:29:56;;;;;;;7.32;3.20;;;8.20;68.30;;;;;;6157161;28;20542;-78
2022/12/10 03:32:57;;;;;;;7.97;3.17;;;8.10;68.50;;;;;;6173754;28;20061;-79
2022/12/10 03:35:58;;;;;;;6.63;3.22;;;8.10;68.60;;;;;;6163323;28;20058;-79
2022/12/10 03:39:01;;;;;;;5.75;2.97;;;8.10;68.70;;;;;;6155619;28;20047;-78
2022/12/10 03:42:03;;;;;;;4.75;2.88;;;8.10;68.60;;;;;;6171738;28;20066;-79
2022/12/10 03:45:05;;;;;;;5.15;2.63;;;8.10;68.50;;;;;;6144482;28;20031;-79
2022/12/10 03:48:06;;;;;;;5.18;2.15;;;8.10;68.50;;;;;;6169410;28;20034;-79
2022/12/10 03:51:07;;;;;;;7.50;2.70;;;8.10;68.20;;;;;;6178607;28;20128;-79
2022/12/10 03:54:08;;;;;;;5.47;2.53;;;8.10;68.00;;;;;;6229161;28;20090;-79
2022/12/10 03:57:09;;;;;;;8.43;3.45;;;8.10;67.90;;;;;;6269518;28;20072;-79
2022/12/10 04:00:11;;;;;;;5.90;2.78;;;8.10;67.90;;;;;;6258550;28;20481;-80
2022/12/10 04:03:13;;;;;;;7.57;3.42;;;8.10;67.80;;;;;;6247564;28;20125;-78
2022/12/10 04:06:17;;;;;;;6.43;3.20;;;8.20;67.80;;;;;;6262783;28;20039;-79
2022/12/10 04:09:17;;;;;;;8.15;3.42;;;8.20;67.70;;;;;;6247245;28;20042;-78
2022/12/10 04:12:18;;;;;;;7.32;4.03;;;8.20;67.50;;;;;;6262129;28;20045;-79
2022/12/10 04:18:54;;;;;;;8.98;2.42;;;8.10;67.20;;;;;;6200614;28;20467;-79
2022/12/10 04:28:34;;;;;;;4.38;2.88;;;7.80;67.70;;;;;;6198886;28;20037;-77
2022/12/10 04:31:35;;;;;;;4.82;2.95;;;7.70;67.80;;;;;;6183190;28;20665;-80
2022/12/10 04:34:36;;;;;;;4.63;2.65;;;7.70;68.00;;;;;;6214395;28;20037;-79
2022/12/10 04:37:37;;;;;;;6.07;2.65;;;7.70;68.10;;;;;;6195285;28;20411;-79
2022/12/10 04:40:38;;;;;;;5.47;2.55;;;7.70;68.10;;;;;;6197359;28;20029;-78
2022/12/10 04:43:39;;;;;;;4.05;2.28;;;7.60;67.90;;;;;;6197372;28;20498;-79
2022/12/10 04:46:39;;;;;;;8.30;2.15;;;7.70;68.00;;;;;;6200924;28;20109;-77
2022/12/10 04:49:41;;;;;;;3.88;2.10;;;7.60;68.00;;;;;;6218188;28;20030;-78
2022/12/10 04:52:41;;;;;;;3.50;2.13;;;7.60;67.80;;;;;;6240744;28;22165;-78
2022/12/10 04:55:42;;;;;;;5.18;2.40;;;7.60;67.80;;;;;;6285218;28;20075;-78
2022/12/10 04:58:43;;;;;;;4.25;2.30;;;7.70;67.80;;;;;;6268317;28;20113;-78
2022/12/10 05:01:44;;;;;;;5.50;2.08;;;7.70;67.60;;;;;;6240799;28;20061;-78
2022/12/10 05:04:47;;;;;;;4.60;2.28;;;7.70;67.30;;;;;;6244307;28;20037;-79
2022/12/10 05:07:50;;;;;;;9.30;2.72;;;7.70;67.20;;;;;;6253518;28;20095;-79
2022/12/10 05:10:50;;;;;;;7.28;3.08;;;7.60;67.00;;;;;;6244886;28;20033;-79
2022/12/10 05:13:53;;;;;;;7.22;2.85;;;7.60;67.00;;;;;;6243172;28;20048;-79
2022/12/10 05:16:54;;;;;;;4.88;2.42;;;7.60;67.10;;;;;;6243930;28;20041;-78
2022/12/10 05:19:54;;;;;;;4.88;3.13;;;7.60;67.20;;;;;;6242436;28;20034;-79
2022/12/10 05:26:18;;;;;;;4.05;2.22;;;7.60;67.20;;;;;;6257264;28;20638;-78
2022/12/10 05:29:19;;;;;;;5.35;2.20;;;7.50;67.10;;;;;;6242321;28;20041;-78
2022/12/10 05:32:20;;;;;;;3.42;2.03;;;7.60;67.10;;;;;;6238732;28;20037;-78
2022/12/10 05:35:21;;;;;;;1.67;1.55;;;7.60;67.00;;;;;;6254318;28;20075;-79
2022/12/10 05:38:22;;;;;;;2.00;1.40;;;7.60;66.80;;;;;;6241638;28;20429;-79
2022/12/10 05:41:26;;;;;;;4.47;1.60;;;7.50;66.70;;;;;;6234246;28;20042;-79
2022/12/10 05:44:27;;;;;;;2.65;1.60;;;7.50;66.60;;;;;;6259257;28;20037;-78
2022/12/10 05:47:30;;;;;;;2.75;2.20;;;7.50;66.50;;;;;;6244082;28;20056;-78
2022/12/10 05:50:33;;;;;;;6.78;2.58;;;7.40;66.40;;;;;;6244207;28;20073;-79
2022/12/10 05:53:35;;;;;;;3.50;1.80;;;7.30;66.40;;;;;;6260555;28;20026;-78
2022/12/10 05:56:37;;;;;;;3.58;1.92;;;7.30;66.60;;;;;;6260670;28;20037;-78
2022/12/10 05:59:38;;;;;;;3.10;1.70;;;7.30;66.70;;;;;;6224443;28;20416;-80
2022/12/10 06:02:39;;;;;;;2.88;1.35;;;7.30;66.60;;;;;;6220536;28;20045;-79
2022/12/10 06:05:40;;;;;;;4.47;1.65;;;7.30;66.60;;;;;;6250721;28;20037;-78
2022/12/10 06:08:41;;;;;;;4.82;2.30;;;7.30;66.60;;;;;;6265181;28;20484;-79
2022/12/10 06:11:42;;;;;;;4.45;1.98;;;7.30;66.50;;;;;;6251758;28;20041;-79
2022/12/10 06:14:43;;;;;;;5.18;2.15;;;7.30;66.50;;;;;;6269254;28;20052;-79
2022/12/10 06:17:44;;;;;;;3.72;2.28;;;7.30;66.50;;;;;;6269704;28;20056;-78
2022/12/10 06:20:45;;;;;;;3.35;1.90;;;7.30;66.40;;;;;;6281874;28;20028;-79
2022/12/10 06:23:47;;;;;;;2.28;1.70;;;7.30;66.40;;;;;;6278425;28;20075;-80
2022/12/10 06:26:48;;;;;;;7.45;2.30;;;7.20;66.40;;;;;;6265852;28;20074;-77
2022/12/10 06:29:49;;;;;;;4.05;1.40;;;7.20;66.40;;;;;;6273311;28;20137;-78
2022/12/10 06:32:50;;;;;;;4.63;1.83;;;7.20;66.30;;;;;;6239784;28;20041;-77
2022/12/10 06:35:51;;;;;;;4.72;1.33;;;7.30;66.40;;;;;;6216411;28;20038;-78
2022/12/10 06:38:52;;;;;;;2.50;1.50;;;7.30;66.10;;;;;;6217821;28;20030;-78
2022/12/10 06:41:53;;;;;;;4.68;1.73;;;7.30;66.10;;;;;;6220549;28;20034;-78
2022/12/10 06:44:54;;;;;;;4.68;1.60;;;7.30;65.70;;;;;;6243448;28;20378;-78
2022/12/10 06:47:54;;;;;;;3.75;1.88;;;7.30;65.50;;;;;;6218738;28;20038;-78
2022/12/10 06:50:55;;;;;;;4.47;2.13;;;7.30;65.40;;;;;;6260998;28;20033;-78
2022/12/10 06:53:56;;;;;;;2.42;1.77;;;7.30;65.40;;;;;;6248822;28;20037;-79
2022/12/10 06:56:57;;;;;;;4.68;2.05;;;7.20;65.60;;;;;;6247644;28;20517;-79
2022/12/10 06:59:58;;;;;;;7.70;1.65;;;7.20;65.70;;;;;;6246404;28;20139;-79
2022/12/10 07:02:59;;;;;;;4.72;2.08;;;7.20;65.70;;;;;;6246957;28;20075;-79
2022/12/10 07:06:01;;;;;;;1.88;1.27;;;7.20;65.70;;;;;;6254293;28;20039;-79
2022/12/10 07:09:02;;;;;;;2.97;1.17;;;7.20;65.70;;;;;;6254942;28;20041;-78
2022/12/10 07:12:04;;;;;;;3.38;2.03;;;7.20;65.60;;;;;;6247228;28;20065;-77
2022/12/10 07:15:05;;;;;;;3.92;1.55;;;7.30;65.40;;;;;;6247272;28;20364;-79
2022/12/10 07:18:06;;;;;;;2.22;1.63;;;7.30;65.20;;;;;;6263008;28;20057;-78
2022/12/10 07:21:15;;;;;;;3.95;2.20;;;7.20;65.00;;;;;;6258223;28;20052;-78
2022/12/10 07:24:18;;;;;;;3.60;2.15;;;7.20;65.10;;;;;;6260602;28;20099;-78
2022/12/10 07:27:19;;;;;;;5.20;2.53;;;7.10;65.20;;;;;;6240401;28;20045;-78
2022/12/10 07:30:20;;;;;;;4.80;2.42;;;7.10;65.20;;;;;;6256299;28;20045;-77
2022/12/10 07:33:21;;;;;;;5.57;2.53;;;7.10;65.40;;;;;;6245699;28;20044;-79
2022/12/10 07:36:23;;;;;;;4.70;2.72;;;7.00;65.40;;;;;;6246605;28;20423;-79
2022/12/10 07:39:24;;;;;;;6.65;2.88;;;7.00;65.20;;;;;;6262532;28;20375;-79
2022/12/10 07:42:25;;;;;;;6.30;2.88;;;7.00;65.20;;;;;;6244600;28;20044;-78
2022/12/10 07:45:25;;;;;;;11.90;2.30;;;7.00;65.30;;;;;;6262039;28;20168;-78
2022/12/10 07:48:26;;;;;;;5.13;2.45;;;7.00;65.40;;;;;;6246676;28;20045;-78
2022/12/10 07:51:27;;;;;;;8.73;2.40;;;7.00;65.40;;;;;;6261923;28;20044;-79
2022/12/10 07:54:28;;;;;;;5.30;2.58;;;7.00;65.40;;;;;;6246109;28;20053;-80
2022/12/10 07:57:30;;;;;;;4.45;2.70;;;7.00;65.20;;;;;;6246861;28;20347;-78
2022/12/10 08:00:30;;;;;;;6.40;2.30;;;7.00;65.00;;;;;;6262159;28;20093;-78
2022/12/10 08:03:33;;;;;;;4.95;2.47;;;7.00;65.10;;;;;;6247678;28;20087;-79
2022/12/10 08:06:34;;;;;;;4.03;2.15;;;7.00;65.10;;;;;;6256474;28;20057;-79
2022/12/10 08:09:35;;;;;;;3.08;2.28;;;7.00;64.90;;;;;;6285042;28;20029;-78
2022/12/10 08:12:36;;;;;;;4.45;2.45;;;7.00;64.80;;;;;;6264117;28;20033;-80
2022/12/10 08:15:37;;;;;;;4.10;2.28;;;7.00;64.50;;;;;;6219426;28;20080;-79
2022/12/10 08:18:38;;;;;;;5.13;2.28;;;7.10;64.30;;;;;;6220107;28;20042;-79
2022/12/10 08:21:39;;;;;;;4.85;2.42;;;7.00;64.00;;;;;;6238351;28;20034;-79
2022/12/10 08:24:40;;;;;;;4.65;2.45;;;7.10;63.90;;;;;;6242024;28;20038;-79
2022/12/10 08:27:42;;;;;;;5.07;2.58;;;7.10;64.00;;;;;;6262374;28;20493;-79
2022/12/10 08:30:49;;;;;;;8.15;4.05;;;7.10;64.50;;;;;;6246849;28;20033;-79
2022/12/10 08:33:50;;;;;;;8.15;4.00;;;7.10;63.50;;;;;;6241640;28;20065;-79
2022/12/10 08:36:51;;;;;;;6.50;3.72;;;7.10;63.50;;;;;;6262225;28;20898;-80
2022/12/10 08:39:51;;;;;;;8.50;4.28;;;7.10;63.50;;;;;;6273310;28;20136;-80
2022/12/10 08:42:52;;;;;;;8.25;4.60;;;7.00;63.50;;;;;;6247712;28;20195;-80
2022/12/10 08:45:55;;;;;;;8.55;3.55;;;7.00;63.60;;;;;;6261137;28;20048;-80
2022/12/10 08:48:55;;;;;;;10.38;5.07;;;6.90;63.60;;;;;;6248579;28;20042;-80
2022/12/10 08:51:56;;;;;;;8.98;5.07;;;6.90;63.70;;;;;;6244287;28;20425;-80
2022/12/10 08:54:58;;;;;;;8.70;5.18;;;6.80;63.70;;;;;;6241574;28;20135;-80
2022/12/10 08:57:59;;;;;;;11.48;4.65;;;6.90;63.70;;;;;;6244501;28;20435;-79
2022/12/10 09:01:08;;;;;;;6.47;3.92;;;6.80;63.70;;;;;;6235400;28;20038;-81
2022/12/10 09:04:09;;;;;;;8.70;4.22;;;6.80;63.70;;;;;;6256250;28;20041;-80
2022/12/10 09:07:12;;;;;;;7.18;4.20;;;6.80;63.60;;;;;;6260635;28;20059;-79
2022/12/10 09:10:12;;;;;;;10.13;4.13;;;6.80;63.70;;;;;;6285116;28;20052;-80
2022/12/10 09:13:13;;;;;;;9.55;4.80;;;6.80;63.70;;;;;;6276661;28;20049;-80
2022/12/10 09:16:15;;;;;;;8.52;3.95;;;6.80;63.70;;;;;;6287147;28;20486;-80
2022/12/10 09:19:17;;;;;;;10.65;5.10;;;6.80;63.50;;;;;;6271282;28;20040;-79
2022/12/10 09:22:17;;;;;;;12.32;5.60;;;6.80;63.50;;;;;;6285790;28;20041;-80
2022/12/10 09:25:21;;;;;;;9.15;4.70;;;6.70;63.60;;;;;;6262627;28;20076;-79
2022/12/10 09:28:22;;;;;;;6.10;3.33;;;6.70;63.70;;;;;;6252163;28;20037;-80
2022/12/10 09:31:23;;;;;;;9.50;4.88;;;6.70;63.60;;;;;;6263416;28;20041;-79
2022/12/10 09:34:24;;;;;;;8.68;4.80;;;6.80;63.70;;;;;;6262476;28;20521;-80
2022/12/10 09:37:25;;;;;;;12.55;5.40;;;6.80;63.50;;;;;;6228649;28;20048;-80
2022/12/10 09:40:39;;;;;;;13.43;6.57;;;6.90;63.40;;;;;;6259956;28;20094;-79
2022/12/10 09:43:57;;;;;;;8.02;4.63;;;6.90;63.10;;;;;;6246171;28;20077;-80
2022/12/10 09:47:03;;;;;;;8.57;5.47;;;6.90;63.10;;;;;;6259922;28;20031;-80
2022/12/10 09:50:21;;;;;;;13.23;6.22;;;6.90;63.00;;;;;;6258678;28;20386;-80
2022/12/10 09:53:23;;;;;;;10.30;5.25;;;6.90;62.80;;;;;;6238774;28;20357;-79
2022/12/10 09:56:38;;;;;;;11.27;5.75;;;6.80;62.70;;;;;;6239385;28;20087;-80
2022/12/10 09:59:46;;;;;;;13.70;7.30;;;6.80;62.70;;;;;;6240598;28;20068;-80
2022/12/10 10:02:48;;;;;;;18.52;7.03;;;6.90;62.80;;;;;;6201751;28;20045;-79
2022/12/10 10:05:51;;;;;;;13.68;6.40;;;6.90;62.40;;;;;;6197123;28;20371;-80
2022/12/10 10:08:55;;;;;;;14.50;6.05;;;6.90;62.20;;;;;;6230233;28;20029;-79
2022/12/10 10:11:56;;;;;;;16.35;6.57;;;6.90;62.30;;;;;;6218040;28;20103;-80
2022/12/10 10:14:57;;;;;;;16.83;7.28;;;6.90;62.20;;;;;;6227449;28;20041;-80
2022/12/10 10:18:19;;;;;;;16.17;7.50;;;7.00;62.10;;;;;;6219988;28;20045;-81
2022/12/10 10:21:25;;;;;;;14.93;7.05;;;7.10;61.90;;;;;;6222279;28;20041;-81
2022/12/10 10:24:35;;;;;;;18.63;8.10;;;7.10;62.60;;;;;;6259316;28;20052;-80
2022/12/10 10:27:36;;;;;;;18.13;9.10;;;7.10;61.70;;;;;;6258991;28;20048;-80
2022/12/10 10:30:42;;;;;;;29.80;9.10;;;7.00;61.50;;;;;;6247783;28;20037;-79
2022/12/10 10:33:56;;;;;;;20.48;9.90;;;7.00;61.50;;;;;;6238046;28;20030;-81
2022/12/10 10:36:57;;;;;;;21.17;8.60;;;7.00;61.50;;;;;;6225679;28;20423;-80
2022/12/10 10:39:59;;;;;;;20.77;8.93;;;7.00;61.50;;;;;;6239253;28;20052;-80
2022/12/10 10:43:00;;;;;;;24.58;10.02;;;7.00;61.80;;;;;;6248588;28;20327;-81
2022/12/10 10:46:07;;;;;;;22.85;9.95;;;7.00;61.70;;;;;;6264038;28;20072;-79
2022/12/10 10:49:18;;;;;;;23.58;9.98;;;7.00;61.50;;;;;;6250298;28;20033;-79
2022/12/10 10:52:19;;;;;;;21.55;9.80;;;7.10;61.50;;;;;;6264987;28;20120;-80
2022/12/10 10:55:36;;;;;;;21.08;8.35;;;7.10;61.40;;;;;;6222241;28;20058;-81
2022/12/10 10:58:50;;;;;;;21.38;8.98;;;7.20;61.10;;;;;;6248012;28;20470;-80
2022/12/10 11:01:53;;;;;;;28.00;10.38;;;7.20;60.70;;;;;;6238785;28;20048;-80
2022/12/10 11:04:58;;;;;;;24.48;9.63;;;7.20;60.60;;;;;;6224052;28;20037;-79
2022/12/10 11:08:13;;;;;;;24.50;9.40;;;7.20;60.50;;;;;;6268606;28;20029;-81
2022/12/10 11:11:34;;;;;;;21.30;8.57;;;7.10;60.40;;;;;;6246821;28;20040;-80
2022/12/10 11:14:45;;;;;;;19.48;8.68;;;7.20;60.50;;;;;;6267954;28;20048;-80
2022/12/10 11:17:48;;;;;;;23.83;10.20;;;7.10;60.40;;;;;;6284702;28;20050;-79
2022/12/10 11:21:13;;;;;;;24.65;10.75;;;7.10;60.10;;;;;;6280286;28;20462;-80
2022/12/10 11:24:18;;;;;;;22.38;9.40;;;7.10;60.10;;;;;;6268471;28;20477;-79
2022/12/10 11:27:35;;;;;;;21.45;10.27;;;7.00;60.10;;;;;;6270185;28;20089;-77
2022/12/10 11:30:47;;;;;;;20.42;7.97;;;7.00;60.20;;;;;;6232602;28;20060;-79
2022/12/10 11:33:54;;;;;;;21.23;8.80;;;7.10;60.30;;;;;;6247198;28;20069;-81
2022/12/10 11:37:32;;;;;;;21.42;9.50;;;6.90;60.10;;;;;;6247422;28;20053;-79
2022/12/10 11:40:40;;;;;;;23.17;9.82;;;7.00;60.50;;;;;;6246955;28;20061;-80
2022/12/10 11:44:04;;;;;;;;;;;7.00;60.40;;;;;;6220067;28;20348;-80
2022/12/10 11:47:20;;;;;;;21.70;9.15;;;7.00;60.40;;;;;;6219918;28;19913;-81
2022/12/10 11:50:30;;;;;;;22.52;8.98;;;7.00;60.30;;;;;;6194213;28;20475;-80
2022/12/10 11:53:57;;;;;;;22.02;10.85;;;6.80;60.30;;;;;;6197199;28;20045;-80
2022/12/10 11:57:24;;;;;;;22.60;9.88;;;7.00;60.70;;;;;;6203938;28;20054;-79
2022/12/10 12:00:33;;;;;;;20.63;8.48;;;7.00;60.70;;;;;;6127959;29;24377;-79
2022/12/10 12:03:34;;;;;;;23.85;8.52;;;6.90;60.60;;;;;;6119015;29;20040;-80
2022/12/10 12:06:41;;;;;;;19.55;9.45;;;6.90;60.80;;;;;;6110313;29;20044;-80
2022/12/10 12:10:07;;;;;;;12.40;6.10;;;6.90;60.70;;;;;;6126033;29;20057;-81
2022/12/10 12:13:32;;;;;;;17.48;8.13;;;6.90;60.70;;;;;;6122476;29;20032;-79
2022/12/10 12:17:00;;;;;;;21.92;9.13;;;6.80;60.70;;;;;;6091795;29;20102;-80
2022/12/10 12:20:23;;;;;;;25.65;7.97;;;6.80;60.60;;;;;;6120506;29;20051;-81
2022/12/10 12:23:31;;;;;;;25.63;8.95;;;6.80;60.70;;;;;;6100957;28;20050;-79
2022/12/10 12:26:39;;;;;;;10.88;6.53;;;6.80;60.80;;;;;;6172333;28;20361;-79
2022/12/10 12:29:50;;;;;;;;;;;6.80;60.60;;;;;;6162584;28;20131;-80
2022/12/10 12:32:57;;;;;;;17.65;6.43;;;6.80;60.60;;;;;;6142472;28;19914;-81
2022/12/10 12:36:13;;;;;;;19.58;9.05;;;6.80;60.40;;;;;;6135755;28;20368;-79
2022/12/10 12:39:32;;;;;;;30.70;9.95;;;6.80;60.40;;;;;;6219810;28;20080;-81
2022/12/10 12:42:48;;;;;;;13.98;6.28;;;6.80;60.50;;;;;;6233252;28;20045;-79
2022/12/10 12:45:54;;;;;;;19.85;8.07;;;6.80;60.40;;;;;;6241960;28;20139;-81
2022/12/10 12:49:14;;;;;;;22.05;7.85;;;6.80;60.50;;;;;;6217366;28;20049;-78
2022/12/10 12:52:46;;;;;;;24.02;8.23;;;6.80;60.30;;;;;;6231313;28;20641;-80
2022/12/10 12:56:17;;;;;;;20.15;8.38;;;6.80;60.40;;;;;;6219831;28;20047;-78
2022/12/10 13:00:05;;;;;;;16.67;7.20;;;6.60;60.20;;;;;;6201204;28;20061;-80
2022/12/10 13:03:22;;;;;;;23.27;9.73;;;6.70;60.40;;;;;;6226396;28;20038;-79
2022/12/10 13:06:26;;;;;;;16.33;6.30;;;6.60;60.60;;;;;;6224345;28;20032;-79
2022/12/10 13:09:44;;;;;;;24.33;7.00;;;6.60;60.70;;;;;;6256717;28;20029;-80
2022/12/10 13:12:52;;;;;;;14.88;7.05;;;6.60;60.80;;;;;;6224577;28;20039;-79
2022/12/10 13:15:53;;;;;;;21.38;8.75;;;6.50;60.90;;;;;;6241250;28;20502;-79
2022/12/10 13:19:20;;;;;;;12.85;4.78;;;6.50;60.70;;;;;;6231885;28;20044;-79
2022/12/10 13:22:44;;;;;;;10.15;6.07;;;6.50;60.30;;;;;;6255591;28;20033;-80
2022/12/10 13:25:55;;;;;;;16.30;7.20;;;6.40;60.10;;;;;;6218112;28;20061;-79
2022/12/10 13:29:12;;;;;;;13.10;6.80;;;6.50;60.10;;;;;;6221801;28;20340;-80
2022/12/10 13:32:17;;;;;;;15.88;7.55;;;6.40;59.90;;;;;;6244341;28;20374;-79
2022/12/10 13:35:26;;;;;;;13.23;5.20;;;6.40;59.40;;;;;;6244304;28;20497;-81
2022/12/10 13:38:27;;;;;;;18.10;7.55;;;6.40;59.30;;;;;;6216412;28;20070;-80
2022/12/10 13:44:59;;;;;;;17.85;6.07;;;6.30;59.30;;;;;;6219071;28;20034;-80
2022/12/10 13:48:17;;;;;;;15.95;6.57;;;6.30;59.30;;;;;;6233017;28;20069;-80
2022/12/10 13:51:46;;;;;;;16.85;6.38;;;6.20;58.90;;;;;;6219627;28;20046;-80
2022/12/10 13:54:59;;;;;;;17.90;7.65;;;6.40;59.00;;;;;;6240091;28;20040;-80
2022/12/10 13:58:15;;;;;;;14.57;6.28;;;6.40;58.90;;;;;;6230642;28;20053;-79
2022/12/10 14:01:42;;;;;;;11.10;4.65;;;6.40;58.70;;;;;;6222915;28;20068;-80
2022/12/10 14:05:11;;;;;;;9.30;4.72;;;6.40;58.60;;;;;;6217746;28;20572;-80
2022/12/10 14:08:29;;;;;;;12.05;5.10;;;6.40;58.50;;;;;;6232388;28;20046;-80
2022/12/10 14:11:46;;;;;;;9.82;4.65;;;6.30;58.40;;;;;;6243516;28;20029;-80
2022/12/10 14:14:56;;;;;;;12.48;6.03;;;6.30;58.40;;;;;;6240215;28;20107;-79
2022/12/10 14:18:11;;;;;;;12.60;5.18;;;6.40;58.50;;;;;;6242424;28;20045;-81
2022/12/10 14:21:15;;;;;;;16.52;6.85;;;6.30;58.50;;;;;;6241526;28;20029;-78
2022/12/10 14:24:32;;;;;;;17.27;6.40;;;6.40;58.60;;;;;;6243085;28;20370;-80
2022/12/10 14:27:35;;;;;;;11.75;5.53;;;6.40;58.70;;;;;;6234551;28;20026;-80
2022/12/10 14:30:47;;;;;;;12.25;5.88;;;6.40;58.60;;;;;;6255461;28;20339;-80
2022/12/10 14:33:50;;;;;;;14.13;6.32;;;6.40;58.60;;;;;;6241760;28;20029;-79
2022/12/10 14:36:56;;;;;;;11.63;5.88;;;6.40;58.80;;;;;;6209687;28;20121;-78
2022/12/10 14:39:57;;;;;;;10.65;5.50;;;6.30;58.70;;;;;;6217183;28;20060;-80
2022/12/10 14:43:08;;;;;;;15.45;6.57;;;6.30;58.80;;;;;;6216861;28;20065;-81
2022/12/10 14:46:23;;;;;;;15.80;5.75;;;6.30;58.80;;;;;;6258259;28;20135;-81
2022/12/10 14:49:26;;;;;;;9.60;6.05;;;6.30;58.90;;;;;;6247395;28;20037;-79
2022/12/10 14:52:38;;;;;;;13.15;5.93;;;6.20;59.00;;;;;;6270474;28;20084;-79
2022/12/10 14:55:40;;;;;;;14.45;5.93;;;6.20;59.20;;;;;;6226631;28;20065;-82
2022/12/10 14:58:55;;;;;;;13.70;6.10;;;6.20;59.50;;;;;;6236867;28;20081;-79
2022/12/10 15:01:59;;;;;;;12.13;5.55;;;6.10;59.60;;;;;;6220338;28;20042;-81
2022/12/10 15:05:01;;;;;;;20.23;6.30;;;6.10;59.80;;;;;;6228629;28;20456;-81
2022/12/10 15:08:12;;;;;;;17.38;7.53;;;6.10;59.90;;;;;;6256652;28;20025;-79
2022/12/10 15:11:17;;;;;;;13.60;5.63;;;6.10;60.10;;;;;;6221772;28;20532;-81
2022/12/10 15:14:20;;;;;;;18.73;6.55;;;6.00;60.30;;;;;;6225716;28;20053;-80
2022/12/10 15:17:54;;;;;;;13.55;6.03;;;6.00;60.60;;;;;;6252420;28;20025;-81
2022/12/10 15:21:19;;;;;;;9.75;4.75;;;6.00;60.80;;;;;;6222034;28;20354;-79
2022/12/10 15:24:26;;;;;;;18.60;6.75;;;6.00;60.90;;;;;;6221265;28;20030;-79
2022/12/10 15:27:27;;;;;;;17.85;7.20;;;6.00;61.00;;;;;;6223531;28;20044;-79
2022/12/10 15:30:37;;;;;;;16.33;6.25;;;6.00;61.20;;;;;;6239303;28;20030;-79
2022/12/10 15:33:48;;;;;;;12.18;5.20;;;6.00;61.40;;;;;;6205424;28;20100;-79
2022/12/10 15:36:55;;;;;;;16.08;6.00;;;6.00;61.50;;;;;;6220905;28;20045;-80
2022/12/10 15:40:00;;;;;;;16.05;5.78;;;6.00;61.40;;;;;;6238320;28;20073;-78
2022/12/10 15:43:22;;;;;;;15.40;4.68;;;6.00;61.40;;;;;;6260413;28;20033;-79
2022/12/10 15:46:23;;;;;;;16.30;4.90;;;6.00;61.60;;;;;;6224157;28;20042;-79
2022/12/10 15:49:24;;;;;;;12.43;5.82;;;6.00;61.40;;;;;;6215436;28;20036;-79
2022/12/10 15:52:31;;;;;;;10.75;5.35;;;6.00;61.30;;;;;;6221504;28;20034;-80
2022/12/10 15:55:32;;;;;;;12.25;5.53;;;6.10;61.40;;;;;;6221185;28;20061;-79
2022/12/10 15:58:33;;;;;;;16.83;6.70;;;6.00;61.30;;;;;;6221749;28;20327;-78
2022/12/10 16:01:35;;;;;;;13.07;6.50;;;6.00;61.30;;;;;;6223736;28;20133;-79
2022/12/10 16:04:36;;;;;;;14.65;5.35;;;6.00;61.60;;;;;;6238537;28;20327;-79
2022/12/10 16:07:37;;;;;;;13.80;5.18;;;6.00;61.80;;;;;;6237207;28;20123;-79
2022/12/10 16:10:38;;;;;;;20.00;6.20;;;6.00;61.90;;;;;;6223587;28;20099;-78
2022/12/10 16:13:47;;;;;;;16.00;6.10;;;6.00;61.80;;;;;;6223258;28;20447;-79
2022/12/10 16:16:48;;;;;;;17.67;5.40;;;6.00;61.90;;;;;;6212242;28;20088;-80
2022/12/10 16:19:49;;;;;;;15.63;5.72;;;6.00;61.90;;;;;;6236078;28;20034;-79
2022/12/10 16:22:50;;;;;;;16.00;6.90;;;5.90;62.00;;;;;;6219419;28;20466;-79
2022/12/10 16:25:51;;;;;;;19.73;6.85;;;5.90;62.10;;;;;;6220084;28;20365;-79
2022/12/10 16:28:52;;;;;;;14.52;6.28;;;5.90;62.20;;;;;;6237244;28;20029;-79
2022/12/10 16:31:53;;;;;;;13.52;5.35;;;5.90;62.20;;;;;;6221610;28;20030;-80
2022/12/10 16:34:54;;;;;;;16.13;6.10;;;6.00;62.20;;;;;;6218477;28;20034;-79